Terminal Aerodrome Forecast
Issued by NWS

Home | Current Version | Previous Version | Text Only | Print | Product List | Glossary On
Versions: 1 2 3 4 5 6 7 8 9 10 11 12 13 14 15 16
000
FTUS43 KDVN 260520
TAFBRL
TAF
KBRL 260520Z 2606/2706 28004KT P6SM SCT050
     FM261400 30008KT P6SM VCSH BKN050
     FM262200 30010KT P6SM SCT050 SCT100=

USA.gov is the U.S. government's official web portal to all federal, state and local government web resources and services.